sensor_id;sensor_type;location;lat;lon;timestamp;pressure;altitude;pressure_sealevel;temperature;humidity
40490;BME280;26196;52.302;10.572;2024-03-02T00:01:28;99502.31;;;13.34;52.63
40490;BME280;26196;52.302;10.572;2024-03-02T00:05:30;99506.53;;;13.37;53.04
40490;BME280;26196;52.302;10.572;2024-03-02T00:09:33;99503.25;;;13.33;53.03
40490;BME280;26196;52.302;10.572;2024-03-02T00:13:35;99546.41;;;13.61;52.48
40490;BME280;26196;52.302;10.572;2024-03-02T00:17:37;99515.88;;;13.42;52.60
40490;BME280;26196;52.302;10.572;2024-03-02T00:21:39;99540.47;;;13.57;52.73
40490;BME280;26196;52.302;10.572;2024-03-02T00:25:48;99501.41;;;13.35;52.53
40490;BME280;26196;52.302;10.572;2024-03-02T00:29:50;99506.13;;;13.44;52.35
40490;BME280;26196;52.302;10.572;2024-03-02T00:33:51;99538.63;;;13.59;52.85
40490;BME280;26196;52.302;10.572;2024-03-02T00:37:54;99486.72;;;13.31;52.54
40490;BME280;26196;52.302;10.572;2024-03-02T00:41:56;99524.22;;;13.50;53.17
40490;BME280;26196;52.302;10.572;2024-03-02T00:45:57;99528.34;;;13.54;52.25
40490;BME280;26196;52.302;10.572;2024-03-02T00:49:59;99472.16;;;13.24;52.59
40490;BME280;26196;52.302;10.572;2024-03-02T00:54:03;99471.25;;;13.25;52.26
40490;BME280;26196;52.302;10.572;2024-03-02T00:58:06;99536.25;;;13.54;52.85
40490;BME280;26196;52.302;10.572;2024-03-02T01:02:07;99525.13;;;13.49;52.31
40490;BME280;26196;52.302;10.572;2024-03-02T01:06:09;99526.50;;;13.56;51.93
40490;BME280;26196;52.302;10.572;2024-03-02T01:10:10;99510.78;;;13.55;52.04
40490;BME280;26196;52.302;10.572;2024-03-02T01:14:12;99464.47;;;13.21;52.22
40490;BME280;26196;52.302;10.572;2024-03-02T01:18:14;99520.47;;;13.54;52.31
40490;BME280;26196;52.302;10.572;2024-03-02T01:22:15;99506.97;;;13.45;52.10
40490;BME280;26196;52.302;10.572;2024-03-02T01:26:17;99514.53;;;13.51;52.58
40490;BME280;26196;52.302;10.572;2024-03-02T01:30:19;99465.31;;;13.21;52.29
40490;BME280;26196;52.302;10.572;2024-03-02T01:34:20;99456.75;;;13.18;52.18
40490;BME280;26196;52.302;10.572;2024-03-02T01:38:22;99499.44;;;13.39;52.29
40490;BME280;26196;52.302;10.572;2024-03-02T01:42:23;99510.47;;;13.45;51.80
40490;BME280;26196;52.302;10.572;2024-03-02T01:46:25;99507.66;;;13.48;52.33
40490;BME280;26196;52.302;10.572;2024-03-02T01:50:28;99469.53;;;13.24;52.02
40490;BME280;26196;52.302;10.572;2024-03-02T01:54:30;99507.06;;;13.43;51.93
40490;BME280;26196;52.302;10.572;2024-03-02T01:58:31;99454.97;;;13.18;51.83
40490;BME280;26196;52.302;10.572;2024-03-02T02:02:33;99512.81;;;13.50;51.78
40490;BME280;26196;52.302;10.572;2024-03-02T02:06:34;99522.50;;;13.49;52.01
40490;BME280;26196;52.302;10.572;2024-03-02T02:10:36;99461.34;;;13.14;51.80
40490;BME280;26196;52.302;10.572;2024-03-02T02:14:38;99530.38;;;13.49;51.65
40490;BME280;26196;52.302;10.572;2024-03-02T02:18:41;99519.09;;;13.47;51.64
40490;BME280;26196;52.302;10.572;2024-03-02T02:23:01;99532.00;;;13.52;51.82
40490;BME280;26196;52.302;10.572;2024-03-02T02:27:03;99463.97;;;13.14;52.19
40490;BME280;26196;52.302;10.572;2024-03-02T02:31:05;99509.88;;;13.40;52.07
40490;BME280;26196;52.302;10.572;2024-03-02T02:35:07;99517.00;;;13.38;51.50
40490;BME280;26196;52.302;10.572;2024-03-02T02:39:13;99506.97;;;13.29;51.92
40490;BME280;26196;52.302;10.572;2024-03-02T02:43:17;99435.47;;;12.90;51.26
40490;BME280;26196;52.302;10.572;2024-03-02T02:47:18;99528.09;;;13.43;51.96
40490;BME280;26196;52.302;10.572;2024-03-02T02:51:20;99506.06;;;13.30;52.20
40490;BME280;26196;52.302;10.572;2024-03-02T02:55:21;99472.69;;;13.14;51.60
40490;BME280;26196;52.302;10.572;2024-03-02T02:59:23;99452.31;;;13.02;51.99
40490;BME280;26196;52.302;10.572;2024-03-02T03:03:24;99500.94;;;13.27;52.23
40490;BME280;26196;52.302;10.572;2024-03-02T03:07:26;99508.09;;;13.41;51.44
40490;BME280;26196;52.302;10.572;2024-03-02T03:11:28;99514.38;;;13.38;52.01
40490;BME280;26196;52.302;10.572;2024-03-02T03:15:29;99506.72;;;13.33;51.60
40490;BME280;26196;52.302;10.572;2024-03-02T03:19:31;99494.78;;;13.28;51.58
40490;BME280;26196;52.302;10.572;2024-03-02T03:23:32;99443.59;;;13.02;51.35
40490;BME280;26196;52.302;10.572;2024-03-02T03:27:34;99443.78;;;12.99;51.88
40490;BME280;26196;52.302;10.572;2024-03-02T03:31:36;99493.66;;;13.32;51.57
40490;BME280;26196;52.302;10.572;2024-03-02T03:35:37;99490.56;;;13.24;51.50
40490;BME280;26196;52.302;10.572;2024-03-02T03:39:39;99442.06;;;12.98;51.50
40490;BME280;26196;52.302;10.572;2024-03-02T03:43:40;99463.38;;;13.09;51.28
40490;BME280;26196;52.302;10.572;2024-03-02T03:47:42;99452.16;;;13.05;50.97
40490;BME280;26196;52.302;10.572;2024-03-02T03:51:43;99435.78;;;13.00;51.56
40490;BME280;26196;52.302;10.572;2024-03-02T03:55:45;99437.66;;;12.98;51.35
40490;BME280;26196;52.302;10.572;2024-03-02T03:59:48;99496.38;;;13.30;51.42
40490;BME280;26196;52.302;10.572;2024-03-02T04:03:49;99486.72;;;13.31;50.97
40490;BME280;26196;52.302;10.572;2024-03-02T04:07:51;99424.09;;;12.90;51.71
40490;BME280;26196;52.302;10.572;2024-03-02T04:11:52;99437.66;;;12.98;52.17
40490;BME280;26196;52.302;10.572;2024-03-02T04:15:54;99457.34;;;13.07;51.95
40490;BME280;26196;52.302;10.572;2024-03-02T04:19:55;99487.19;;;13.22;51.37
40490;BME280;26196;52.302;10.572;2024-03-02T04:23:57;99469.88;;;13.18;51.66
40490;BME280;26196;52.302;10.572;2024-03-02T04:28:00;99425.88;;;12.89;51.49
40490;BME280;26196;52.302;10.572;2024-03-02T04:32:01;99483.63;;;13.23;51.68
40490;BME280;26196;52.302;10.572;2024-03-02T04:36:03;99485.66;;;13.18;51.62
40490;BME280;26196;52.302;10.572;2024-03-02T04:40:06;99481.34;;;13.17;51.75
40490;BME280;26196;52.302;10.572;2024-03-02T04:44:10;99494.97;;;13.23;51.41
40490;BME280;26196;52.302;10.572;2024-03-02T04:48:12;99496.00;;;13.21;51.44
40490;BME280;26196;52.302;10.572;2024-03-02T04:52:14;99493.53;;;13.18;50.94
40490;BME280;26196;52.302;10.572;2024-03-02T04:56:16;99460.00;;;12.89;51.28
40490;BME280;26196;52.302;10.572;2024-03-02T05:00:32;99501.25;;;13.21;51.91
40490;BME280;26196;52.302;10.572;2024-03-02T05:04:34;99500.34;;;13.22;51.10
40490;BME280;26196;52.302;10.572;2024-03-02T05:08:36;99491.06;;;13.14;51.35
40490;BME280;26196;52.302;10.572;2024-03-02T05:12:37;99433.78;;;12.72;51.55
40490;BME280;26196;52.302;10.572;2024-03-02T05:16:45;99486.31;;;13.05;50.99
40490;BME280;26196;52.302;10.572;2024-03-02T05:20:46;99462.88;;;12.85;51.08
40490;BME280;26196;52.302;10.572;2024-03-02T05:24:49;99505.91;;;13.16;51.20
40490;BME280;26196;52.302;10.572;2024-03-02T05:28:50;99472.22;;;12.90;51.31
40490;BME280;26196;52.302;10.572;2024-03-02T05:32:52;99515.50;;;13.17;51.03
40490;BME280;26196;52.302;10.572;2024-03-02T05:36:53;99452.78;;;12.77;51.36
40490;BME280;26196;52.302;10.572;2024-03-02T05:40:55;99475.72;;;12.91;50.88
40490;BME280;26196;52.302;10.572;2024-03-02T05:44:56;99462.03;;;12.84;51.36
40490;BME280;26196;52.302;10.572;2024-03-02T05:48:59;99463.81;;;12.84;50.75
40490;BME280;26196;52.302;10.572;2024-03-02T05:53:02;99450.31;;;12.74;51.28
40490;BME280;26196;52.302;10.572;2024-03-02T05:57:03;99467.63;;;12.78;50.75
40490;BME280;26196;52.302;10.572;2024-03-02T06:01:19;99428.06;;;12.48;51.07
40490;BME280;26196;52.302;10.572;2024-03-02T06:05:21;99466.06;;;12.74;50.43
40490;BME280;26196;52.302;10.572;2024-03-02T06:09:22;99507.84;;;12.96;51.31
40490;BME280;26196;52.302;10.572;2024-03-02T06:13:26;99470.66;;;12.70;50.42
40490;BME280;26196;52.302;10.572;2024-03-02T06:17:27;99385.94;;;12.18;51.28
40490;BME280;26196;52.302;10.572;2024-03-02T06:21:29;99523.59;;;12.96;50.82
40490;BME280;26196;52.302;10.572;2024-03-02T06:25:31;99533.41;;;13.08;50.73
40490;BME280;26196;52.302;10.572;2024-03-02T06:29:33;99502.44;;;12.82;50.62
40490;BME280;26196;52.302;10.572;2024-03-02T06:33:35;99493.19;;;12.75;50.59
40490;BME280;26196;52.302;10.572;2024-03-02T06:37:38;99535.44;;;13.03;50.20
40490;BME280;26196;52.302;10.572;2024-03-02T06:41:40;99528.50;;;13.02;50.35
40490;BME280;26196;52.302;10.572;2024-03-02T06:45:43;99515.72;;;12.96;50.57
40490;BME280;26196;52.302;10.572;2024-03-02T06:49:45;99535.13;;;13.09;50.50
40490;BME280;26196;52.302;10.572;2024-03-02T06:53:46;99497.19;;;12.82;50.14
40490;BME280;26196;52.302;10.572;2024-03-02T06:57:48;99525.78;;;12.88;50.32
40490;BME280;26196;52.302;10.572;2024-03-02T07:01:50;99562.59;;;13.04;50.76
40490;BME280;26196;52.302;10.572;2024-03-02T07:05:51;99497.16;;;12.66;50.45
40490;BME280;26196;52.302;10.572;2024-03-02T07:09:53;99541.66;;;13.02;50.73
40490;BME280;26196;52.302;10.572;2024-03-02T07:13:54;99535.78;;;12.97;50.73
40490;BME280;26196;52.302;10.572;2024-03-02T07:17:56;99530.84;;;12.91;50.37
40490;BME280;26196;52.302;10.572;2024-03-02T07:21:58;99503.53;;;12.78;50.34
40490;BME280;26196;52.302;10.572;2024-03-02T07:25:59;99531.63;;;12.93;50.61
40490;BME280;26196;52.302;10.572;2024-03-02T07:30:06;99556.41;;;13.05;50.24
40490;BME280;26196;52.302;10.572;2024-03-02T07:34:08;99499.97;;;12.79;50.44
40490;BME280;26196;52.302;10.572;2024-03-02T07:38:10;99486.25;;;12.74;50.74
40490;BME280;26196;52.302;10.572;2024-03-02T07:42:12;99573.44;;;13.13;50.13
40490;BME280;26196;52.302;10.572;2024-03-02T07:46:14;99514.91;;;12.78;50.11
40490;BME280;26196;52.302;10.572;2024-03-02T07:50:16;99570.22;;;13.08;50.58
40490;BME280;26196;52.302;10.572;2024-03-02T07:54:17;99571.22;;;13.06;50.31
40490;BME280;26196;52.302;10.572;2024-03-02T07:58:19;99563.59;;;13.01;50.32
40490;BME280;26196;52.302;10.572;2024-03-02T08:02:21;99548.31;;;12.92;50.53
40490;BME280;26196;52.302;10.572;2024-03-02T08:06:23;99589.47;;;13.09;50.53
40490;BME280;26196;52.302;10.572;2024-03-02T08:10:28;99580.88;;;13.05;50.51
40490;BME280;26196;52.302;10.572;2024-03-02T08:14:30;99531.81;;;12.73;50.70
40490;BME280;26196;52.302;10.572;2024-03-02T08:18:31;99584.44;;;13.04;50.46
40490;BME280;26196;52.302;10.572;2024-03-02T08:22:33;99550.41;;;12.85;51.02
40490;BME280;26196;52.302;10.572;2024-03-02T08:26:35;99589.53;;;13.07;51.04
40490;BME280;26196;52.302;10.572;2024-03-02T08:30:37;99527.31;;;12.75;50.52
40490;BME280;26196;52.302;10.572;2024-03-02T08:34:39;99592.94;;;13.09;49.88
40490;BME280;26196;52.302;10.572;2024-03-02T08:38:41;99587.84;;;13.06;50.46
40490;BME280;26196;52.302;10.572;2024-03-02T08:42:43;99577.47;;;13.03;50.16
40490;BME280;26196;52.302;10.572;2024-03-02T08:46:45;99539.44;;;12.77;50.74
40490;BME280;26196;52.302;10.572;2024-03-02T08:50:46;99579.19;;;13.04;51.38
40490;BME280;26196;52.302;10.572;2024-03-02T08:54:48;99583.09;;;13.13;51.29
40490;BME280;26196;52.302;10.572;2024-03-02T08:58:50;99591.69;;;13.17;51.11
40490;BME280;26196;52.302;10.572;2024-03-02T09:02:52;99555.34;;;12.91;51.58
40490;BME280;26196;52.302;10.572;2024-03-02T09:06:54;99526.25;;;12.79;51.98
40490;BME280;26196;52.302;10.572;2024-03-02T09:10:56;99518.69;;;12.73;52.08
40490;BME280;26196;52.302;10.572;2024-03-02T09:14:59;99599.59;;;13.17;51.99
40490;BME280;26196;52.302;10.572;2024-03-02T09:19:01;99590.16;;;13.12;52.97
40490;BME280;26196;52.302;10.572;2024-03-02T09:23:03;99544.38;;;12.83;52.64
40490;BME280;26196;52.302;10.572;2024-03-02T09:27:04;99592.59;;;13.16;52.65
40490;BME280;26196;52.302;10.572;2024-03-02T09:31:07;99600.41;;;13.17;52.51
40490;BME280;26196;52.302;10.572;2024-03-02T09:35:08;99558.13;;;12.88;53.01
40490;BME280;26196;52.302;10.572;2024-03-02T09:39:10;99550.47;;;12.84;53.44
40490;BME280;26196;52.302;10.572;2024-03-02T09:43:12;99616.03;;;13.20;53.29
40490;BME280;26196;52.302;10.572;2024-03-02T09:47:15;99572.38;;;13.00;53.01
40490;BME280;26196;52.302;10.572;2024-03-02T09:51:16;99619.31;;;13.24;53.68
40490;BME280;26196;52.302;10.572;2024-03-02T09:55:21;99633.88;;;13.31;53.41
40490;BME280;26196;52.302;10.572;2024-03-02T09:59:22;99582.91;;;13.00;53.86
40490;BME280;26196;52.302;10.572;2024-03-02T10:03:24;99635.44;;;13.35;54.02
40490;BME280;26196;52.302;10.572;2024-03-02T10:07:28;99589.59;;;13.06;52.97
40490;BME280;26196;52.302;10.572;2024-03-02T10:11:34;99639.75;;;13.36;53.61
40490;BME280;26196;52.302;10.572;2024-03-02T10:15:40;99627.78;;;13.30;53.20
40490;BME280;26196;52.302;10.572;2024-03-02T10:19:43;99624.38;;;13.28;53.28
40490;BME280;26196;52.302;10.572;2024-03-02T10:23:44;99604.50;;;13.23;54.07
40490;BME280;26196;52.302;10.572;2024-03-02T10:27:50;99660.31;;;13.45;53.87
40490;BME280;26196;52.302;10.572;2024-03-02T10:31:51;99605.56;;;13.19;54.30
40490;BME280;26196;52.302;10.572;2024-03-02T10:35:53;99654.88;;;13.48;53.84
40490;BME280;26196;52.302;10.572;2024-03-02T10:39:54;99595.41;;;13.12;54.05
40490;BME280;26196;52.302;10.572;2024-03-02T10:43:56;99646.84;;;13.51;54.56
40490;BME280;26196;52.302;10.572;2024-03-02T10:48:02;99649.28;;;13.54;54.06
40490;BME280;26196;52.302;10.572;2024-03-02T10:52:04;99585.34;;;13.21;54.19
40490;BME280;26196;52.302;10.572;2024-03-02T10:56:07;99650.06;;;13.56;54.19
40490;BME280;26196;52.302;10.572;2024-03-02T11:00:12;99638.16;;;13.49;53.92
40490;BME280;26196;52.302;10.572;2024-03-02T11:04:18;99645.47;;;13.60;54.68
40490;BME280;26196;52.302;10.572;2024-03-02T11:08:19;99638.78;;;13.54;54.34
40490;BME280;26196;52.302;10.572;2024-03-02T11:12:46;99647.88;;;13.65;55.00
40490;BME280;26196;52.302;10.572;2024-03-02T11:16:50;99591.59;;;13.35;54.55
40490;BME280;26196;52.302;10.572;2024-03-02T11:20:53;99594.00;;;13.40;55.15
40490;BME280;26196;52.302;10.572;2024-03-02T11:24:56;99645.78;;;13.71;54.45
40490;BME280;26196;52.302;10.572;2024-03-02T11:28:58;99581.16;;;13.34;55.17
40490;BME280;26196;52.302;10.572;2024-03-02T11:33:05;99633.38;;;13.73;54.51
40490;BME280;26196;52.302;10.572;2024-03-02T11:37:13;99634.97;;;13.76;54.49
40490;BME280;26196;52.302;10.572;2024-03-02T11:41:15;99639.16;;;13.80;55.15
40490;BME280;26196;52.302;10.572;2024-03-02T11:45:22;99585.41;;;13.52;54.31
40490;BME280;26196;52.302;10.572;2024-03-02T11:53:44;99625.66;;;13.86;54.79
40490;BME280;26196;52.302;10.572;2024-03-02T11:57:48;99606.94;;;13.76;54.51
40490;BME280;26196;52.302;10.572;2024-03-02T12:01:51;99628.88;;;13.91;54.57
40490;BME280;26196;52.302;10.572;2024-03-02T12:05:53;99611.06;;;13.81;54.50
40490;BME280;26196;52.302;10.572;2024-03-02T12:10:02;99623.63;;;13.91;54.67
40490;BME280;26196;52.302;10.572;2024-03-02T12:14:11;99627.69;;;13.97;55.22
40490;BME280;26196;52.302;10.572;2024-03-02T12:18:14;99580.94;;;13.70;54.68
40490;BME280;26196;52.302;10.572;2024-03-02T12:22:15;99575.63;;;13.72;54.68
40490;BME280;26196;52.302;10.572;2024-03-02T12:26:17;99615.66;;;13.93;54.69
40490;BME280;26196;52.302;10.572;2024-03-02T12:30:19;99567.72;;;13.72;54.75
40490;BME280;26196;52.302;10.572;2024-03-02T12:34:22;99560.00;;;13.69;54.48
40490;BME280;26196;52.302;10.572;2024-03-02T12:38:25;99620.06;;;14.08;54.53
40490;BME280;26196;52.302;10.572;2024-03-02T12:42:27;99608.00;;;14.04;54.92
40490;BME280;26196;52.302;10.572;2024-03-02T12:46:30;99608.34;;;14.14;54.88
40490;BME280;26196;52.302;10.572;2024-03-02T12:50:33;99538.44;;;13.78;54.63
40490;BME280;26196;52.302;10.572;2024-03-02T12:54:35;99610.63;;;14.20;53.96
40490;BME280;26196;52.302;10.572;2024-03-02T12:58:40;99604.59;;;14.18;54.28
40490;BME280;26196;52.302;10.572;2024-03-02T13:02:45;99561.94;;;13.97;54.06
40490;BME280;26196;52.302;10.572;2024-03-02T13:06:47;99592.78;;;14.25;53.96
40490;BME280;26196;52.302;10.572;2024-03-02T13:10:49;99529.69;;;13.93;54.03
40490;BME280;26196;52.302;10.572;2024-03-02T13:14:54;99591.69;;;14.29;53.47
40490;BME280;26196;52.302;10.572;2024-03-02T13:18:55;99569.66;;;14.16;53.35
40490;BME280;26196;52.302;10.572;2024-03-02T13:22:57;99541.31;;;14.05;53.41
40490;BME280;26196;52.302;10.572;2024-03-02T13:26:59;99589.47;;;14.37;53.30
40490;BME280;26196;52.302;10.572;2024-03-02T13:31:01;99543.66;;;14.10;53.22
40490;BME280;26196;52.302;10.572;2024-03-02T13:35:04;99544.44;;;14.12;53.55
40490;BME280;26196;52.302;10.572;2024-03-02T13:39:06;99585.03;;;14.38;53.19
40490;BME280;26196;52.302;10.572;2024-03-02T13:43:12;99576.50;;;14.34;53.35
40490;BME280;26196;52.302;10.572;2024-03-02T13:47:14;99528.06;;;14.07;53.28
40490;BME280;26196;52.302;10.572;2024-03-02T13:51:16;99522.72;;;14.08;53.78
40490;BME280;26196;52.302;10.572;2024-03-02T13:55:18;99532.69;;;14.17;53.71
40490;BME280;26196;52.302;10.572;2024-03-02T13:59:20;99542.03;;;14.23;53.69
40490;BME280;26196;52.302;10.572;2024-03-02T14:03:22;99528.47;;;14.15;53.89
40490;BME280;26196;52.302;10.572;2024-03-02T14:07:24;99514.63;;;14.11;54.48
40490;BME280;26196;52.302;10.572;2024-03-02T14:11:26;99575.69;;;14.48;53.97
40490;BME280;26196;52.302;10.572;2024-03-02T14:15:28;99528.78;;;14.25;54.40
40490;BME280;26196;52.302;10.572;2024-03-02T14:19:32;99510.53;;;14.21;54.08
40490;BME280;26196;52.302;10.572;2024-03-02T14:23:33;99563.78;;;14.57;54.14
40490;BME280;26196;52.302;10.572;2024-03-02T14:27:35;99547.66;;;14.47;53.83
40490;BME280;26196;52.302;10.572;2024-03-02T14:31:56;99563.44;;;14.63;53.80
40490;BME280;26196;52.302;10.572;2024-03-02T14:35:58;99500.66;;;14.25;53.88
40490;BME280;26196;52.302;10.572;2024-03-02T14:39:59;99548.38;;;14.65;53.87
40490;BME280;26196;52.302;10.572;2024-03-02T14:44:02;99537.28;;;14.60;53.79
40490;BME280;26196;52.302;10.572;2024-03-02T14:48:04;99553.47;;;14.68;53.94
40490;BME280;26196;52.302;10.572;2024-03-02T14:52:07;99552.53;;;14.69;53.70
40490;BME280;26196;52.302;10.572;2024-03-02T14:56:10;99539.56;;;14.66;53.86
40490;BME280;26196;52.302;10.572;2024-03-02T15:00:14;99539.38;;;14.69;53.69
40490;BME280;26196;52.302;10.572;2024-03-02T15:04:16;99489.25;;;14.40;53.67
40490;BME280;26196;52.302;10.572;2024-03-02T15:08:23;99546.72;;;14.78;53.83
40490;BME280;26196;52.302;10.572;2024-03-02T15:12:25;99535.69;;;14.72;53.52
40490;BME280;26196;52.302;10.572;2024-03-02T15:16:26;99541.63;;;14.75;53.57
40490;BME280;26196;52.302;10.572;2024-03-02T15:20:29;99546.34;;;14.84;53.53
40490;BME280;26196;52.302;10.572;2024-03-02T15:24:31;99483.44;;;14.50;53.49
40490;BME280;26196;52.302;10.572;2024-03-02T15:28:33;99522.44;;;14.73;53.44
40490;BME280;26196;52.302;10.572;2024-03-02T15:32:35;99539.22;;;14.86;53.65
40490;BME280;26196;52.302;10.572;2024-03-02T15:36:38;99539.09;;;14.88;53.23
40490;BME280;26196;52.302;10.572;2024-03-02T15:40:40;99534.88;;;14.85;53.36
40490;BME280;26196;52.302;10.572;2024-03-02T15:44:41;99533.94;;;14.86;53.40
40490;BME280;26196;52.302;10.572;2024-03-02T15:48:45;99503.44;;;14.68;53.35
40490;BME280;26196;52.302;10.572;2024-03-02T15:52:47;99515.28;;;14.75;53.19
40490;BME280;26196;52.302;10.572;2024-03-02T15:56:48;99533.63;;;14.91;53.32
40490;BME280;26196;52.302;10.572;2024-03-02T16:00:50;99488.00;;;14.62;53.28
40490;BME280;26196;52.302;10.572;2024-03-02T16:04:52;99491.38;;;14.64;53.10
40490;BME280;26196;52.302;10.572;2024-03-02T16:08:53;99443.91;;;14.35;52.91
40490;BME280;26196;52.302;10.572;2024-03-02T16:12:57;99524.81;;;14.92;53.34
40490;BME280;26196;52.302;10.572;2024-03-02T16:17:02;99546.34;;;14.99;52.85
40490;BME280;26196;52.302;10.572;2024-03-02T16:21:05;99540.44;;;14.95;52.75
40490;BME280;26196;52.302;10.572;2024-03-02T16:25:07;99531.88;;;14.92;52.92
40490;BME280;26196;52.302;10.572;2024-03-02T16:29:08;99545.63;;;14.97;52.67
40490;BME280;26196;52.302;10.572;2024-03-02T16:33:10;99549.19;;;14.96;52.84
40490;BME280;26196;52.302;10.572;2024-03-02T16:37:11;99558.59;;;15.00;52.54
40490;BME280;26196;52.302;10.572;2024-03-02T16:41:13;99562.16;;;14.99;52.43
40490;BME280;26196;52.302;10.572;2024-03-02T16:45:15;99513.78;;;14.71;52.50
40490;BME280;26196;52.302;10.572;2024-03-02T16:49:17;99511.03;;;14.73;52.61
40490;BME280;26196;52.302;10.572;2024-03-02T16:53:19;99556.88;;;14.99;52.50
40490;BME280;26196;52.302;10.572;2024-03-02T16:57:20;99549.38;;;14.93;52.94
40490;BME280;26196;52.302;10.572;2024-03-02T17:01:22;99558.69;;;14.98;52.66
40490;BME280;26196;52.302;10.572;2024-03-02T17:05:24;99514.81;;;14.69;52.82
40490;BME280;26196;52.302;10.572;2024-03-02T17:09:25;99570.06;;;14.99;53.31
40490;BME280;26196;52.302;10.572;2024-03-02T17:13:27;99564.78;;;14.99;53.04
40490;BME280;26196;52.302;10.572;2024-03-02T17:17:28;99567.53;;;14.97;52.85
40490;BME280;26196;52.302;10.572;2024-03-02T17:21:30;99558.88;;;14.95;53.10
40490;BME280;26196;52.302;10.572;2024-03-02T17:25:32;99517.72;;;14.64;53.08
40490;BME280;26196;52.302;10.572;2024-03-02T17:29:34;99570.38;;;14.94;53.10
40490;BME280;26196;52.302;10.572;2024-03-02T17:33:35;99591.63;;;15.05;52.83
40490;BME280;26196;52.302;10.572;2024-03-02T17:37:38;99577.88;;;15.00;52.92
40490;BME280;26196;52.302;10.572;2024-03-02T17:41:41;99600.38;;;15.06;53.05
40490;BME280;26196;52.302;10.572;2024-03-02T17:45:43;99569.59;;;14.92;52.91
40490;BME280;26196;52.302;10.572;2024-03-02T17:49:44;99576.38;;;14.96;53.24
40490;BME280;26196;52.302;10.572;2024-03-02T17:53:46;99552.00;;;14.78;52.92
40490;BME280;26196;52.302;10.572;2024-03-02T17:57:50;99556.88;;;14.84;53.03
40490;BME280;26196;52.302;10.572;2024-03-02T18:01:52;99550.97;;;14.81;52.93
40490;BME280;26196;52.302;10.572;2024-03-02T18:05:54;99588.16;;;15.05;53.07
40490;BME280;26196;52.302;10.572;2024-03-02T18:09:55;99543.34;;;14.76;52.98
40490;BME280;26196;52.302;10.572;2024-03-02T18:14:01;99521.78;;;14.70;53.22
40490;BME280;26196;52.302;10.572;2024-03-02T18:18:03;99593.16;;;15.09;52.87
40490;BME280;26196;52.302;10.572;2024-03-02T18:22:05;99521.97;;;14.66;53.02
40490;BME280;26196;52.302;10.572;2024-03-02T18:26:07;99533.63;;;14.77;53.06
40490;BME280;26196;52.302;10.572;2024-03-02T18:30:09;99565.09;;;14.94;52.86
40490;BME280;26196;52.302;10.572;2024-03-02T18:34:12;99533.63;;;14.77;53.00
40490;BME280;26196;52.302;10.572;2024-03-02T18:38:14;99577.81;;;15.02;52.95
40490;BME280;26196;52.302;10.572;2024-03-02T18:42:15;99595.81;;;15.09;53.09
40490;BME280;26196;52.302;10.572;2024-03-02T18:46:17;99601.91;;;15.10;53.01
40490;BME280;26196;52.302;10.572;2024-03-02T18:50:20;99542.75;;;14.71;52.69
40490;BME280;26196;52.302;10.572;2024-03-02T18:54:21;99601.06;;;15.09;52.62
40490;BME280;26196;52.302;10.572;2024-03-02T18:58:23;99597.94;;;15.03;52.06
40490;BME280;26196;52.302;10.572;2024-03-02T19:02:26;99547.06;;;14.72;52.30
40490;BME280;26196;52.302;10.572;2024-03-02T19:06:30;99597.09;;;15.02;51.97
40490;BME280;26196;52.302;10.572;2024-03-02T19:10:32;99603.22;;;15.03;52.00
40490;BME280;26196;52.302;10.572;2024-03-02T19:14:34;99576.75;;;14.90;52.18
40490;BME280;26196;52.302;10.572;2024-03-02T19:18:35;99533.16;;;14.70;51.90
40490;BME280;26196;52.302;10.572;2024-03-02T19:22:37;99593.44;;;15.05;51.81
40490;BME280;26196;52.302;10.572;2024-03-02T19:26:43;99571.41;;;14.92;51.68
40490;BME280;26196;52.302;10.572;2024-03-02T19:30:45;99593.50;;;15.03;51.83
40490;BME280;26196;52.302;10.572;2024-03-02T19:34:49;99584.94;;;15.00;51.83
40490;BME280;26196;52.302;10.572;2024-03-02T19:38:51;99586.06;;;14.96;51.67
40490;BME280;26196;52.302;10.572;2024-03-02T19:42:53;99589.28;;;15.01;51.18
40490;BME280;26196;52.302;10.572;2024-03-02T19:46:56;99541.63;;;14.75;51.39
40490;BME280;26196;52.302;10.572;2024-03-02T19:50:58;99490.59;;;14.48;51.79
40490;BME280;26196;52.302;10.572;2024-03-02T19:54:59;99574.41;;;15.00;51.13
40490;BME280;26196;52.302;10.572;2024-03-02T19:59:02;99542.19;;;14.80;51.00
40490;BME280;26196;52.302;10.572;2024-03-02T20:03:05;99526.19;;;14.69;50.93
40490;BME280;26196;52.302;10.572;2024-03-02T20:07:06;99566.03;;;14.93;50.75
40490;BME280;26196;52.302;10.572;2024-03-02T20:11:09;99571.47;;;14.90;50.82
40490;BME280;26196;52.302;10.572;2024-03-02T20:15:10;99517.53;;;14.67;50.53
40490;BME280;26196;52.302;10.572;2024-03-02T20:19:13;99560.09;;;14.90;50.25
40490;BME280;26196;52.302;10.572;2024-03-02T20:23:17;99559.72;;;14.96;50.50
40490;BME280;26196;52.302;10.572;2024-03-02T20:27:19;99507.19;;;14.64;50.31
40490;BME280;26196;52.302;10.572;2024-03-02T20:31:22;99542.59;;;14.88;50.47
40490;BME280;26196;52.302;10.572;2024-03-02T20:35:23;99513.47;;;14.61;50.87
40490;BME280;26196;52.302;10.572;2024-03-02T20:39:25;99544.56;;;14.85;50.48
40490;BME280;26196;52.302;10.572;2024-03-02T20:43:26;99560.66;;;14.95;50.23
40490;BME280;26196;52.302;10.572;2024-03-02T20:47:28;99516.03;;;14.63;49.95
40490;BME280;26196;52.302;10.572;2024-03-02T20:51:30;99551.25;;;14.91;49.91
40490;BME280;26196;52.302;10.572;2024-03-02T20:55:33;99553.88;;;14.91;50.14
40490;BME280;26196;52.302;10.572;2024-03-02T20:59:36;99510.19;;;14.72;49.89
40490;BME280;26196;52.302;10.572;2024-03-02T21:03:37;99494.47;;;14.56;49.57
40490;BME280;26196;52.302;10.572;2024-03-02T21:07:40;99495.31;;;14.57;49.54
40490;BME280;26196;52.302;10.572;2024-03-02T21:11:41;99543.78;;;14.83;49.75